Time;durP1;ratioP1;P1;durP2;ratioP2;P2;SDS_P1;SDS_P2;PMS_P1;PMS_P2;Temp;Humidity;BMP_temperature;BMP_pressure;BME280_temperature;BME280_humidity;BME280_pressure;Samples;Min_cycle;Max_cycle;Signal;HPM_P1;HPM_P2
2022/07/06 00:00:11;;;;;;;15.60;12.50;;;;;;;17.62;73.29;100670.85;107651;1285;23688;-77
2022/07/06 00:02:47;;;;;;;15.30;10.90;;;;;;;17.58;73.22;100667.66;107543;1286;23602;-78
2022/07/06 00:05:41;;;;;;;16.40;12.00;;;;;;;17.53;73.03;100669.75;107929;1281;22801;-77
2022/07/06 00:08:19;;;;;;;16.30;10.60;;;;;;;17.50;73.24;100670.15;107951;1276;23029;-77
2022/07/06 00:11:09;;;;;;;13.00;10.20;;;;;;;17.49;73.37;100672.14;108576;1269;23099;-78
2022/07/06 00:13:49;;;;;;;12.70;10.80;;;;;;;17.45;73.28;100676.73;108760;1269;22112;-78
2022/07/06 00:16:44;;;;;;;14.40;10.20;;;;;;;17.41;73.27;100676.69;108892;1267;21984;-77
2022/07/06 00:19:35;;;;;;;15.30;9.60;;;;;;;17.37;73.42;100675.21;109056;1261;21973;-77
2022/07/06 00:22:17;;;;;;;14.10;10.20;;;;;;;17.34;73.54;100677.27;109688;1258;21983;-78
2022/07/06 00:24:51;;;;;;;13.40;10.20;;;;;;;17.32;73.49;100680.42;109238;1263;23045;-78
2022/07/06 00:27:45;;;;;;;;;;;;;;;17.29;73.36;100680.30;109211;1263;23609;-78
2022/07/06 00:30:47;;;;;;;18.10;10.50;;;;;;;17.16;73.78;100681.47;109018;1266;23193;-78
2022/07/06 00:33:27;;;;;;;18.40;11.60;;;;;;;17.12;73.88;100683.27;108661;1269;22069;-77
2022/07/06 00:36:02;;;;;;;16.60;11.00;;;;;;;17.11;73.89;100681.34;108865;1267;24363;-77
2022/07/06 00:38:57;;;;;;;16.30;10.90;;;;;;;17.11;73.84;100675.46;108918;1267;22017;-77
2022/07/06 00:41:39;;;;;;;15.00;11.00;;;;;;;17.08;74.00;100677.59;108902;1266;23505;-78
2022/07/06 00:44:17;;;;;;;21.90;11.40;;;;;;;17.06;73.94;100676.81;108707;1269;22100;-78
2022/07/06 00:46:56;;;;;;;16.20;11.60;;;;;;;17.03;73.86;100672.45;108893;1267;22042;-77
2022/07/06 00:53:01;;;;;;;12.50;11.10;;;;;;;16.94;73.90;100667.71;108728;1272;22000;-77
2022/07/06 00:55:44;;;;;;;14.80;10.50;;;;;;;16.88;73.77;100666.15;108700;1272;23080;-78
2022/07/06 00:58:29;;;;;;;16.00;11.30;;;;;;;16.83;73.90;100662.84;108429;1275;22455;-77
2022/07/06 01:01:31;;;;;;;13.00;11.50;;;;;;;16.80;74.12;100660.45;108390;1275;23623;-78
2022/07/06 01:04:48;;;;;;;17.60;11.80;;;;;;;16.75;74.23;100659.06;108792;1270;21984;-79
2022/07/06 01:07:31;;;;;;;16.00;12.50;;;;;;;16.72;74.22;100660.16;108887;1266;23094;-77
2022/07/06 01:10:13;;;;;;;23.00;12.70;;;;;;;16.71;74.30;100660.31;108559;1272;21995;-77
2022/07/06 01:12:54;;;;;;;15.90;12.40;;;;;;;16.72;74.59;100658.47;108741;1270;23126;-77
2022/07/06 01:15:30;;;;;;;13.10;11.70;;;;;;;16.70;74.45;100659.20;108764;1270;21986;-78
2022/07/06 01:18:10;;;;;;;15.20;12.80;;;;;;;16.68;74.63;100656.89;109242;1264;21962;-78
2022/07/06 01:21:04;;;;;;;15.40;11.90;;;;;;;16.65;74.64;100653.60;109351;1261;21992;-77
2022/07/06 01:23:46;;;;;;;14.60;12.80;;;;;;;16.63;74.62;100650.89;108743;1269;22911;-78
2022/07/06 01:26:25;;;;;;;12.10;11.00;;;;;;;16.62;74.77;100652.81;108814;1269;21992;-78
2022/07/06 01:29:04;;;;;;;15.90;12.70;;;;;;;16.62;74.91;100656.34;109325;1263;23001;-78
2022/07/06 01:31:56;;;;;;;13.90;12.50;;;;;;;16.61;75.05;100652.89;109183;1263;21984;-78
2022/07/06 01:34:45;;;;;;;15.10;13.50;;;;;;;16.57;74.96;100649.39;109266;1262;24167;-77
2022/07/06 01:37:21;;;;;;;14.40;11.70;;;;;;;16.57;74.97;100648.84;109177;1263;23820;-78
2022/07/06 01:40:15;;;;;;;14.60;12.20;;;;;;;16.54;74.86;100648.63;109153;1264;23107;-77
2022/07/06 01:43:04;;;;;;;20.40;13.20;;;;;;;16.50;74.97;100644.55;108935;1266;22992;-77
2022/07/06 01:45:53;;;;;;;12.40;11.10;;;;;;;16.47;74.90;100647.27;108916;1267;22089;-78
2022/07/06 01:49:05;;;;;;;14.50;12.70;;;;;;;16.45;74.98;100650.73;109483;1261;22567;-78
2022/07/06 01:51:45;;;;;;;17.30;11.40;;;;;;;16.42;75.01;100648.63;109743;1261;21984;-78
2022/07/06 01:54:38;;;;;;;17.40;11.40;;;;;;;16.38;74.93;100650.73;109562;1261;21977;-78
2022/07/06 01:57:18;;;;;;;14.40;10.60;;;;;;;16.35;75.02;100644.86;109610;1261;21976;-78
2022/07/06 01:59:58;;;;;;;11.60;10.00;;;;;;;16.34;74.94;100641.62;109614;1261;21969;-76
2022/07/06 02:03:06;;;;;;;11.50;9.20;;;;;;;16.31;74.93;100641.86;110090;1257;22074;-77
2022/07/06 02:05:49;;;;;;;14.70;9.60;;;;;;;16.26;74.90;100636.17;110032;1256;21958;-77
2022/07/06 02:08:48;;;;;;;14.00;9.50;;;;;;;16.21;74.95;100636.35;110099;1255;21964;-78
2022/07/06 02:11:27;;;;;;;12.70;9.20;;;;;;;16.18;74.96;100634.70;110025;1257;22164;-77
2022/07/06 02:14:19;;;;;;;15.90;9.40;;;;;;;16.15;74.91;100635.79;109803;1257;22030;-78
2022/07/06 02:17:12;;;;;;;10.60;8.50;;;;;;;16.09;74.89;100634.04;109484;1264;23024;-79
2022/07/06 02:20:12;;;;;;;10.90;8.20;;;;;;;16.05;74.94;100636.20;109201;1261;22951;-78
2022/07/06 02:23:33;;;;;;;12.00;8.80;;;;;;;16.00;74.94;100637.60;109509;1264;22075;-79
2022/07/06 02:26:21;;;;;;;9.70;8.20;;;;;;;15.97;75.02;100645.98;109137;1267;23687;-78
2022/07/06 02:29:07;;;;;;;13.50;9.10;;;;;;;15.96;75.05;100650.21;109176;1267;21980;-78
2022/07/06 02:31:58;;;;;;;12.10;8.30;;;;;;;15.93;75.14;100652.11;109111;1265;22369;-78
2022/07/06 02:35:07;;;;;;;12.20;8.70;;;;;;;15.91;75.43;100654.11;109648;1264;23950;-79
2022/07/06 02:37:55;;;;;;;17.60;9.80;;;;;;;15.88;75.55;100657.52;109210;1264;21971;-78
2022/07/06 02:40:43;;;;;;;12.50;9.40;;;;;;;15.86;75.78;100663.45;109319;1265;23765;-78
2022/07/06 02:43:23;;;;;;;;;;;;;;;15.87;75.89;100670.92;108859;1270;21968;-77
2022/07/06 02:47:13;;;;;;;14.80;9.80;;;;;;;15.80;76.24;100671.35;108742;1273;23022;-78
2022/07/06 02:49:52;;;;;;;16.50;10.60;;;;;;;15.79;76.20;100670.86;108369;1276;24084;-78
2022/07/06 02:52:50;;;;;;;16.30;10.10;;;;;;;15.81;76.14;100673.38;108390;1276;23735;-77
2022/07/06 02:55:34;;;;;;;19.20;9.90;;;;;;;15.78;75.78;100677.00;108447;1271;21989;-79
2022/07/06 02:58:10;;;;;;;17.50;11.30;;;;;;;15.77;75.71;100673.96;108736;1271;21971;-78
2022/07/06 03:01:09;;;;;;;14.00;11.10;;;;;;;15.73;75.51;100672.90;108803;1265;22432;-78
2022/07/06 03:04:09;;;;;;;15.00;10.30;;;;;;;15.70;75.71;100675.76;109485;1259;21973;-78
2022/07/06 03:07:22;;;;;;;15.20;9.60;;;;;;;15.70;75.97;100676.33;109848;1257;23708;-77
2022/07/06 03:10:44;;;;;;;19.20;12.30;;;;;;;15.68;75.99;100680.60;109689;1262;22050;-77
2022/07/06 03:14:04;;;;;;;11.20;10.10;;;;;;;15.67;75.98;100681.08;109575;1263;21994;-78
2022/07/06 03:16:54;;;;;;;18.20;10.00;;;;;;;15.69;76.10;100680.45;109702;1262;21966;-77
2022/07/06 03:19:32;;;;;;;17.40;10.20;;;;;;;15.72;75.90;100671.09;108738;1270;21979;-78
2022/07/06 03:22:19;;;;;;;;;;;;;;;;;;;;;
2022/07/06 03:24:57;;;;;;;14.40;9.70;;;;;;;15.78;76.08;100664.66;108775;1270;23603;-77
2022/07/06 03:27:27;;;;;;;18.60;11.00;;;;;;;15.81;76.01;100666.20;108896;1262;22094;-78
2022/07/06 03:30:11;;;;;;;19.50;10.70;;;;;;;15.83;76.09;100668.30;109621;1260;22112;-78
2022/07/06 03:33:20;;;;;;;14.90;9.50;;;;;;;15.86;76.21;100668.98;109078;1267;23673;-78
2022/07/06 03:36:18;;;;;;;14.80;10.30;;;;;;;15.90;76.28;100669.54;108888;1267;22499;-78
2022/07/06 03:39:18;;;;;;;15.80;9.40;;;;;;;15.95;76.16;100669.58;109087;1267;22144;-77
2022/07/06 03:42:11;;;;;;;15.90;9.90;;;;;;;15.98;76.02;100664.35;108985;1267;22181;-77
2022/07/06 03:45:34;;;;;;;;;;;;;;;;;;;;;
2022/07/06 03:49:05;;;;;;;;;;;;;;;;;;;;;
2022/07/06 03:51:58;;;;;;;24.00;9.50;;;;;;;16.10;75.98;100667.88;110146;1258;23591;-77
2022/07/06 03:54:42;;;;;;;14.60;8.50;;;;;;;16.15;75.96;100672.70;110347;1255;21962;-78
2022/07/06 03:57:34;;;;;;;23.00;10.40;;;;;;;16.22;75.82;100674.45;110234;1255;21969;-79
2022/07/06 04:00:30;;;;;;;18.40;13.90;;;;;;;16.29;75.77;100674.70;110137;1258;22904;-78
2022/07/06 04:04:10;;;;;;;25.10;18.80;;;;;;;16.35;75.70;100676.54;110352;1256;24285;-78
2022/07/06 04:07:09;;;;;;;17.30;15.40;;;;;;;16.40;75.64;100678.16;110253;1257;22000;-78
2022/07/06 04:10:01;;;;;;;19.60;11.80;;;;;;;16.46;75.60;100681.34;110253;1257;22016;-77
2022/07/06 04:12:57;;;;;;;25.30;11.90;;;;;;;16.54;75.47;100684.09;109949;1257;21955;-77
2022/07/06 04:16:08;;;;;;;17.00;10.40;;;;;;;16.62;75.43;100686.75;110138;1257;23036;-78
2022/07/06 04:19:33;;;;;;;14.90;8.40;;;;;;;16.72;75.54;100689.17;109590;1264;22084;-78
2022/07/06 04:22:52;;;;;;;16.20;8.20;;;;;;;16.81;75.21;100692.39;109171;1265;22039;-78
2022/07/06 04:26:46;;;;;;;22.50;9.00;;;;;;;16.87;74.68;100691.71;108584;1273;22012;-78
2022/07/06 04:34:09;;;;;;;;;;;;;;;;;;;;;
2022/07/06 04:36:47;;;;;;;15.60;8.40;;;;;;;17.12;74.40;100687.13;107792;1286;23105;-76
2022/07/06 04:39:25;;;;;;;14.00;7.20;;;;;;;17.23;74.43;100694.42;108138;1277;21990;-77
2022/07/06 04:42:47;;;;;;;16.10;6.30;;;;;;;17.40;74.72;100693.08;108670;1268;23579;-78
2022/07/06 04:46:25;;;;;;;12.20;6.50;;;;;;;17.59;74.41;100692.15;108409;1279;22061;-78
2022/07/06 04:49:44;;;;;;;9.90;4.70;;;;;;;17.75;73.99;100693.12;108324;1274;22053;-78
2022/07/06 04:52:57;;;;;;;;;;;;;;;;;;;;;
2022/07/06 04:56:14;;;;;;;7.70;4.40;;;;;;;18.08;73.24;100697.30;108219;1279;21975;-78
2022/07/06 04:59:21;;;;;;;13.00;8.10;;;;;;;18.26;72.79;100700.73;107600;1287;23691;-77
2022/07/06 05:01:57;;;;;;;10.80;4.90;;;;;;;18.45;72.14;100705.83;107445;1288;23101;-79
2022/07/06 05:04:44;;;;;;;15.50;5.20;;;;;;;18.62;71.82;100700.94;108160;1276;21991;-77
2022/07/06 05:08:01;;;;;;;7.20;5.60;;;;;;;18.85;71.31;100702.91;108384;1276;23619;-78
2022/07/06 05:11:42;;;;;;;8.80;5.10;;;;;;;19.08;70.38;100704.45;109045;1267;22077;-78
2022/07/06 05:14:51;;;;;;;12.10;8.50;;;;;;;19.23;69.13;100702.05;109797;1260;23034;-78
2022/07/06 05:17:51;;;;;;;9.80;7.00;;;;;;;19.35;68.08;100703.45;109666;1263;22087;-79
2022/07/06 05:20:58;;;;;;;12.50;9.10;;;;;;;19.42;66.88;100708.92;109263;1263;22728;-78
2022/07/06 05:27:40;;;;;;;8.00;3.20;;;;;;;19.28;65.68;100718.84;108554;1276;21985;-78
2022/07/06 05:30:34;;;;;;;7.00;4.30;;;;;;;19.20;65.59;100723.04;108673;1273;22033;-79
2022/07/06 05:33:43;;;;;;;10.10;4.40;;;;;;;19.12;65.63;100722.39;108629;1273;22242;-79
2022/07/06 05:36:53;;;;;;;9.20;4.10;;;;;;;19.09;65.97;100712.48;109213;1267;22133;-77
2022/07/06 05:39:53;;;;;;;7.50;4.40;;;;;;;19.12;66.26;100715.30;109048;1267;21966;-78
2022/07/06 05:43:13;;;;;;;17.50;5.00;;;;;;;19.18;66.51;100715.52;109471;1265;23721;-78
2022/07/06 05:46:13;;;;;;;7.00;4.50;;;;;;;19.23;66.42;100711.91;109558;1265;22949;-78
2022/07/06 05:53:49;;;;;;;;;;;;;;;;;;;;;
2022/07/06 05:56:43;;;;;;;;;;;;;;;;;;;;;
2022/07/06 06:00:20;;;;;;;7.00;3.40;;;;;;;19.68;66.52;100718.98;109872;1260;21996;-79
2022/07/06 06:03:21;;;;;;;5.10;3.00;;;;;;;19.76;65.65;100716.95;109843;1253;21970;-78
2022/07/06 06:05:57;;;;;;;6.60;2.70;;;;;;;19.85;65.26;100707.75;110698;1252;21959;-78
2022/07/06 06:08:36;;;;;;;3.50;2.30;;;;;;;19.98;65.02;100699.33;110057;1257;21953;-77
2022/07/06 06:11:27;;;;;;;5.70;3.10;;;;;;;20.18;65.08;100698.55;109306;1265;21981;-78
2022/07/06 06:14:02;;;;;;;7.60;2.60;;;;;;;20.35;64.37;100700.18;109534;1264;22750;-76
2022/07/06 06:16:42;;;;;;;6.40;3.80;;;;;;;20.47;63.58;100705.37;108974;1270;22425;-78
2022/07/06 06:19:35;;;;;;;6.60;3.00;;;;;;;20.55;62.59;100713.45;108527;1273;21997;-78
2022/07/06 06:22:13;;;;;;;7.20;3.30;;;;;;;20.58;62.06;100715.35;108624;1273;21979;-78
2022/07/06 06:25:00;;;;;;;8.30;4.40;;;;;;;20.62;61.92;100729.55;108661;1273;23592;-79
2022/07/06 06:27:46;;;;;;;5.70;3.20;;;;;;;20.61;61.48;100737.65;108869;1269;23071;-77
2022/07/06 06:30:29;;;;;;;6.00;2.90;;;;;;;20.63;61.53;100740.91;109447;1260;22080;-78
2022/07/06 06:33:23;;;;;;;6.40;2.40;;;;;;;20.67;61.67;100746.12;109664;1261;21983;-77
2022/07/06 06:36:06;;;;;;;6.10;2.70;;;;;;;20.76;61.60;100751.69;109686;1260;23691;-77
2022/07/06 06:38:43;;;;;;;5.70;2.60;;;;;;;20.99;62.51;100753.09;110071;1257;23035;-78
2022/07/06 06:41:32;;;;;;;7.40;3.40;;;;;;;21.43;62.84;100752.98;110247;1251;21963;-78
2022/07/06 06:44:14;;;;;;;5.30;3.10;;;;;;;21.91;61.98;100751.65;110604;1251;21930;-78
2022/07/06 06:46:55;;;;;;;5.60;2.10;;;;;;;22.44;60.80;100750.75;110858;1251;21963;-77
2022/07/06 06:49:30;;;;;;;4.80;2.80;;;;;;;22.91;59.22;100755.23;110513;1252;23026;-77
2022/07/06 06:52:06;;;;;;;10.40;3.20;;;;;;;23.41;58.13;100761.25;110392;1254;22732;-77
2022/07/06 06:55:00;;;;;;;10.10;6.50;;;;;;;23.61;54.27;100766.23;109619;1261;24611;-77
2022/07/06 06:57:45;;;;;;;6.40;2.60;;;;;;;23.44;52.17;100774.58;109250;1266;22058;-77
2022/07/06 07:00:20;;;;;;;5.40;2.70;;;;;;;23.11;52.18;100789.98;109203;1267;21980;-77
2022/07/06 07:03:10;;;;;;;6.60;2.40;;;;;;;22.73;52.44;100798.45;109044;1267;21986;-76
2022/07/06 07:05:39;;;;;;;4.90;2.40;;;;;;;22.38;53.07;100807.54;109190;1262;23019;-78
2022/07/06 07:08:09;;;;;;;6.60;3.40;;;;;;;22.11;54.29;100809.27;109075;1267;22031;-77
2022/07/06 07:10:38;;;;;;;6.80;2.80;;;;;;;21.87;54.46;100804.37;109430;1264;21996;-78
2022/07/06 07:13:10;;;;;;;10.80;2.60;;;;;;;21.61;54.78;100801.94;109455;1264;22942;-77
2022/07/06 07:15:39;;;;;;;6.30;3.10;;;;;;;21.38;55.63;100803.96;109634;1261;22858;-77
2022/07/06 07:18:09;;;;;;;8.40;3.50;;;;;;;21.17;56.29;100799.73;109032;1266;24606;-77
2022/07/06 07:20:54;;;;;;;9.30;3.10;;;;;;;20.96;56.93;100798.91;109216;1264;22048;-78
2022/07/06 07:23:23;;;;;;;8.30;3.00;;;;;;;20.72;57.49;100797.30;109715;1260;21961;-78
2022/07/06 07:25:54;;;;;;;7.20;2.90;;;;;;;20.51;58.47;100789.77;109486;1263;23776;-78
2022/07/06 07:28:24;;;;;;;4.60;3.20;;;;;;;20.38;59.31;100783.83;109551;1263;21986;-77
2022/07/06 07:30:55;;;;;;;8.00;3.40;;;;;;;20.30;59.91;100779.60;109639;1260;21968;-78
2022/07/06 07:33:30;;;;;;;8.40;3.00;;;;;;;20.23;60.11;100776.17;109831;1259;21971;-78
2022/07/06 07:36:03;;;;;;;8.10;3.70;;;;;;;20.19;60.69;100773.61;109772;1257;22485;-79
2022/07/06 07:38:34;;;;;;;22.90;20.10;;;;;;;20.18;60.94;100764.98;110032;1259;22481;-78
2022/07/06 07:41:03;;;;;;;17.30;5.60;;;;;;;20.12;60.70;100761.33;109214;1263;22006;-77
2022/07/06 07:43:35;;;;;;;10.00;3.30;;;;;;;19.98;60.54;100756.67;109590;1263;21978;-77
2022/07/06 07:46:04;;;;;;;6.10;3.60;;;;;;;19.85;60.76;100756.05;109528;1263;23004;-77
2022/07/06 07:48:33;;;;;;;6.00;3.40;;;;;;;19.72;60.95;100756.27;109281;1263;23111;-77
2022/07/06 07:51:13;;;;;;;7.10;3.70;;;;;;;19.64;61.67;100759.86;109516;1263;22907;-80
2022/07/06 07:53:42;;;;;;;7.10;3.90;;;;;;;19.62;61.86;100766.91;109023;1260;24173;-78
2022/07/06 07:56:12;;;;;;;8.00;3.80;;;;;;;19.61;61.98;100771.21;109649;1263;22975;-77
2022/07/06 07:58:41;;;;;;;8.30;3.30;;;;;;;19.61;62.28;100774.09;109827;1257;24265;-77
2022/07/06 08:01:13;;;;;;;;;;;;;;;19.61;62.38;100774.64;110130;1257;23006;-77
2022/07/06 08:03:42;;;;;;;8.70;3.40;;;;;;;19.52;62.56;100775.30;110457;1257;23705;-78
2022/07/06 08:06:11;;;;;;;4.60;3.10;;;;;;;19.51;62.60;100773.70;109995;1257;21978;-79
2022/07/06 08:08:40;;;;;;;7.80;3.30;;;;;;;19.53;62.82;100777.48;110134;1257;21960;-80
2022/07/06 08:11:10;;;;;;;4.50;2.90;;;;;;;19.56;62.74;100779.13;109576;1259;21968;-79
2022/07/06 08:13:48;;;;;;;9.30;3.70;;;;;;;19.59;62.68;100783.14;110033;1257;21999;-79
2022/07/06 08:16:17;;;;;;;8.00;3.70;;;;;;;19.59;62.56;100780.13;110229;1254;21965;-79
2022/07/06 08:18:51;;;;;;;7.80;3.50;;;;;;;19.58;62.64;100776.66;110181;1257;21965;-79
2022/07/06 08:21:21;;;;;;;6.40;3.60;;;;;;;19.54;62.69;100776.41;109564;1261;22848;-79
2022/07/06 08:23:55;;;;;;;8.70;3.60;;;;;;;19.49;62.62;100769.35;109794;1261;22083;-80
2022/07/06 08:26:24;;;;;;;9.90;6.10;;;;;;;19.45;62.74;100768.59;109353;1262;21969;-78
2022/07/06 08:28:56;;;;;;;10.80;3.40;;;;;;;19.46;63.00;100771.52;109900;1257;23128;-78
2022/07/06 08:31:29;;;;;;;9.80;4.00;;;;;;;19.46;62.98;100769.54;110364;1257;23068;-78
2022/07/06 08:34:21;;;;;;;11.00;3.80;;;;;;;19.45;63.03;100771.68;110235;1257;22650;-78
2022/07/06 08:36:50;;;;;;;10.20;3.70;;;;;;;19.47;63.31;100772.66;110458;1257;22381;-79
2022/07/06 08:39:22;;;;;;;10.60;3.10;;;;;;;19.52;63.58;100778.52;110626;1251;21963;-79
2022/07/06 08:41:52;;;;;;;6.00;3.50;;;;;;;19.55;63.41;100780.98;110843;1251;23034;-78
2022/07/06 08:44:24;;;;;;;14.50;4.10;;;;;;;19.57;63.40;100777.59;109915;1257;22838;-79
2022/07/06 08:46:55;;;;;;;9.90;3.80;;;;;;;19.59;63.70;100779.27;109655;1257;22993;-79
2022/07/06 08:50:10;;;;;;;7.40;5.30;;;;;;;19.65;63.74;100780.73;109853;1260;22657;-79
2022/07/06 08:52:39;;;;;;;10.50;3.90;;;;;;;19.71;63.84;100782.09;109184;1267;23860;-78
2022/07/06 08:55:10;;;;;;;7.80;3.40;;;;;;;19.80;63.76;100783.10;109155;1266;23627;-78
2022/07/06 08:57:41;;;;;;;5.70;3.90;;;;;;;19.90;63.65;100785.04;108739;1266;341979;-78
2022/07/06 09:00:14;;;;;;;6.00;4.10;;;;;;;20.00;63.58;100788.76;108710;1270;23140;-78
2022/07/06 09:02:45;;;;;;;7.80;3.70;;;;;;;20.09;63.19;100788.77;108995;1265;21983;-79
2022/07/06 09:09:45;;;;;;;;;;;;;;;;;;;;;
2022/07/06 09:13:04;;;;;;;8.00;4.90;;;;;;;20.26;62.08;100778.42;108275;1280;23073;-78
2022/07/06 09:16:35;;;;;;;;;;;;;;;;;;;;;
2022/07/06 09:19:21;;;;;;;6.20;3.30;;;;;;;20.82;63.13;100770.11;107703;1286;21994;-78
2022/07/06 09:22:32;;;;;;;7.00;3.80;;;;;;;21.58;63.58;100770.87;108073;1279;22052;-79
2022/07/06 09:32:57;;;;;;;2.60;1.20;;;;;;;24.06;53.17;100770.30;107788;1286;24098;-78
2022/07/06 09:36:07;;;;;;;;;;;;;;;;;;;;;
2022/07/06 09:39:03;;;;;;;;;;;;;;;;;;;;;
2022/07/06 09:43:15;;;;;;;;;;;;;;;;;;;;;
2022/07/06 09:47:17;;;;;;;;;;;;;;;;;;;;;
2022/07/06 09:49:55;;;;;;;;;;;;;;;;;;;;;
2022/07/06 09:53:23;;;;;;;5.20;1.30;;;;;;;26.95;40.91;100760.21;108272;1283;22785;-79
2022/07/06 09:56:24;;;;;;;3.00;1.30;;;;;;;27.21;38.75;100753.16;108062;1279;21992;-79
2022/07/06 09:59:04;;;;;;;3.60;2.40;;;;;;;27.31;38.03;100746.66;108010;1280;22756;-79
2022/07/06 10:05:33;;;;;;;2.00;1.00;;;;;;;27.63;36.08;100746.98;108717;1271;22058;-79
2022/07/06 10:09:39;;;;;;;2.30;1.10;;;;;;;27.75;35.38;100745.44;108714;1270;23601;-78
2022/07/06 10:13:05;;;;;;;2.80;1.00;;;;;;;27.85;35.04;100741.42;108373;1277;22005;-79
2022/07/06 10:17:30;;;;;;;3.50;1.00;;;;;;;27.67;33.63;100744.23;108110;1283;23077;-78
2022/07/06 10:21:19;;;;;;;;;;;;;;;;;;;;;
2022/07/06 10:24:29;;;;;;;2.90;1.30;;;;;;;27.14;33.72;100744.01;108004;1283;23011;-79
2022/07/06 10:28:00;;;;;;;4.60;1.10;;;;;;;27.03;33.74;100751.61;108597;1270;22061;-78
2022/07/06 10:30:50;;;;;;;4.90;2.00;;;;;;;27.13;34.90;100750.20;108603;1273;22047;-78
2022/07/06 10:33:25;;;;;;;4.10;2.10;;;;;;;27.28;34.79;100746.39;108424;1276;22055;-78
2022/07/06 10:35:58;;;;;;;7.00;2.00;;;;;;;27.24;34.33;100751.48;109105;1264;21993;-78
2022/07/06 10:38:35;;;;;;;4.10;1.50;;;;;;;27.07;34.25;100767.74;109202;1265;21972;-79
2022/07/06 10:41:09;;;;;;;32.90;3.10;;;;;;;26.80;33.93;100801.15;109428;1262;22030;-78
2022/07/06 10:43:44;;;;;;;18.50;1.80;;;;;;;26.26;34.34;100828.95;109118;1264;21943;-79
2022/07/06 10:46:20;;;;;;;6.80;1.40;;;;;;;25.55;35.66;100840.45;108993;1266;21990;-78
2022/07/06 10:48:51;;;;;;;8.80;2.10;;;;;;;24.75;37.27;100850.60;109472;1258;22483;-78
2022/07/06 10:51:28;;;;;;;7.80;2.30;;;;;;;23.93;38.99;100865.95;110275;1250;22431;-78
2022/07/06 10:54:09;;;;;;;8.10;2.20;;;;;;;22.97;41.20;100875.30;110623;1251;21966;-79
2022/07/06 10:56:50;;;;;;;8.80;2.10;;;;;;;21.99;43.77;100883.20;110595;1251;22416;-79
2022/07/06 10:59:24;;;;;;;4.20;1.60;;;;;;;21.11;45.99;100886.90;110589;1251;21971;-80
2022/07/06 11:02:18;;;;;;;4.50;1.90;;;;;;;20.37;48.27;100886.73;110647;1251;23667;-79
2022/07/06 11:04:53;;;;;;;3.70;1.40;;;;;;;19.79;50.37;100889.55;110720;1250;21961;-78
2022/07/06 11:07:50;;;;;;;2.20;0.90;;;;;;;19.33;51.80;100890.73;110009;1257;21989;-83
2022/07/06 11:11:48;;;;;;;;;;;;;;;;;;;;;
2022/07/06 11:15:21;;;;;;;;;;;;;;;;;;;;;
2022/07/06 11:19:31;;;;;;;4.20;2.20;;;;;;;18.01;57.23;100897.29;109294;1267;22228;-79
2022/07/06 11:23:29;;;;;;;4.40;1.60;;;;;;;17.89;58.51;100903.19;108591;1279;22001;-80
2022/07/06 11:31:48;;;;;;;;;;;;;;;;;;;;;
2022/07/06 11:35:34;;;;;;;;;;;;;;;;;;;;;
2022/07/06 11:39:12;;;;;;;;;;;;;;;;;;;;;
2022/07/06 11:42:54;;;;;;;;;;;;;;;;;;;;;
2022/07/06 11:46:41;;;;;;;;;;;;;;;;;;;;;
2022/07/06 11:49:53;;;;;;;4.20;2.30;;;;;;;17.40;63.81;100886.57;105783;1308;22420;-80
2022/07/06 11:54:34;;;;;;;;;;;;;;;;;;;;;
2022/07/06 11:58:42;;;;;;;;;;;;;;;;;;;;;
2022/07/06 12:03:18;;;;;;;3.40;2.20;;;;;;;17.31;64.86;100883.81;108436;1283;22050;-80
2022/07/06 12:06:50;;;;;;;;;;;;;;;;;;;;;
2022/07/06 12:13:28;;;;;;;;;;;;;;;;;;;;;
2022/07/06 12:16:48;;;;;;;;;;;;;;;;;;;;;
2022/07/06 12:24:02;;;;;;;;;;;;;;;;;;;;;
2022/07/06 12:40:27;;;;;;;;;;;;;;;;;;;;;
2022/07/06 12:44:21;;;;;;;;;;;;;;;;;;;;;
2022/07/06 12:48:13;;;;;;;2.90;1.40;;;;;;;20.55;57.65;100848.98;109216;1269;21969;-81
2022/07/06 12:52:18;;;;;;;4.30;3.10;;;;;;;20.44;57.99;100841.70;109361;1265;22925;-81
2022/07/06 12:56:23;;;;;;;;;;;;;;;;;;;;;
2022/07/06 12:59:27;;;;;;;;;;;;;;;20.40;59.60;100838.80;108412;1279;23618;-80
2022/07/06 13:01:57;;;;;;;1.70;1.30;;;;;;;20.33;59.66;100837.45;108559;1270;23083;-80
2022/07/06 13:04:42;;;;;;;6.10;4.10;;;;;;;20.33;59.88;100835.35;108631;1274;23614;-80
2022/07/06 13:07:19;;;;;;;7.10;2.70;;;;;;;20.37;59.73;100831.19;108710;1274;21990;-81
2022/07/06 13:10:08;;;;;;;3.80;2.60;;;;;;;20.40;59.52;100820.59;108731;1274;23040;-81
2022/07/06 13:12:38;;;;;;;2.60;1.40;;;;;;;20.37;59.11;100818.67;108758;1268;22061;-79
2022/07/06 13:15:09;;;;;;;8.70;2.40;;;;;;;20.38;58.98;100816.07;108914;1270;22433;-80
2022/07/06 13:17:46;;;;;;;3.90;2.50;;;;;;;20.39;58.80;100816.92;109131;1267;22850;-79
2022/07/06 13:20:18;;;;;;;3.40;2.90;;;;;;;20.38;58.42;100812.69;109289;1267;23622;-78
2022/07/06 13:23:01;;;;;;;4.20;3.10;;;;;;;20.38;57.89;100809.27;109707;1259;23785;-79
2022/07/06 13:25:42;;;;;;;4.60;3.10;;;;;;;20.38;57.47;100802.15;109613;1259;22087;-80
2022/07/06 13:28:30;;;;;;;3.90;2.60;;;;;;;20.36;57.12;100803.25;109600;1262;21969;-80
2022/07/06 13:31:16;;;;;;;4.90;1.60;;;;;;;20.37;57.29;100796.14;109852;1253;23066;-79
2022/07/06 13:33:47;;;;;;;8.10;2.80;;;;;;;20.38;57.23;100796.54;109782;1260;23600;-80
2022/07/06 13:36:57;;;;;;;5.00;2.70;;;;;;;20.39;56.88;100797.02;109275;1267;22010;-79
2022/07/06 13:39:48;;;;;;;3.80;1.40;;;;;;;20.42;56.44;100788.08;109159;1267;22753;-80
2022/07/06 13:44:03;;;;;;;2.70;1.80;;;;;;;20.43;55.90;100790.27;109027;1267;22022;-79
2022/07/06 13:47:22;;;;;;;3.50;1.30;;;;;;;20.47;55.70;100785.39;109179;1265;22784;-78
2022/07/06 13:50:12;;;;;;;5.60;1.60;;;;;;;20.56;55.46;100789.86;109174;1265;22430;-79
2022/07/06 13:53:30;;;;;;;;;;;;;;;;;;;;;
2022/07/06 13:57:11;;;;;;;2.60;1.40;;;;;;;20.74;53.57;100781.15;110277;1257;21990;-80
2022/07/06 14:00:30;;;;;;;;;;;;;;;;;;;;;
2022/07/06 14:03:05;;;;;;;3.00;1.30;;;;;;;20.80;52.11;100777.20;109617;1263;23127;-80
2022/07/06 14:06:15;;;;;;;;;;;;;;;;;;;;;
2022/07/06 14:09:01;;;;;;;3.00;1.40;;;;;;;20.83;51.69;100776.96;109526;1264;21969;-81
2022/07/06 14:11:44;;;;;;;4.20;1.80;;;;;;;20.85;51.83;100777.73;109372;1265;22150;-81
2022/07/06 14:14:45;;;;;;;5.10;1.50;;;;;;;20.90;51.86;100770.02;109333;1260;23719;-81
2022/07/06 14:17:45;;;;;;;4.30;1.50;;;;;;;20.91;51.59;100767.31;110001;1254;23623;-79
2022/07/06 14:20:48;;;;;;;5.20;1.60;;;;;;;20.92;51.45;100767.60;110296;1254;22004;-79
2022/07/06 14:23:38;;;;;;;2.00;0.90;;;;;;;20.90;51.54;100771.09;109920;1259;21968;-78
2022/07/06 14:26:20;;;;;;;3.60;1.40;;;;;;;20.93;51.68;100771.40;109834;1257;22484;-79
2022/07/06 14:28:56;;;;;;;4.30;1.60;;;;;;;20.96;51.38;100765.41;109741;1262;21994;-80
2022/07/06 14:31:30;;;;;;;2.30;1.10;;;;;;;21.01;51.23;100764.09;110182;1259;21969;-80
2022/07/06 14:34:09;;;;;;;4.90;1.30;;;;;;;21.03;51.10;100759.27;109229;1264;22982;-83
2022/07/06 14:36:55;;;;;;;6.10;1.50;;;;;;;21.05;50.98;100757.80;109584;1263;22060;-80
2022/07/06 14:39:30;;;;;;;3.40;1.30;;;;;;;21.09;51.28;100756.64;109107;1270;21988;-80
2022/07/06 14:42:11;;;;;;;3.80;1.40;;;;;;;21.20;51.46;100755.36;109026;1265;23442;-82
2022/07/06 14:45:35;;;;;;;2.30;1.30;;;;;;;21.27;50.97;100754.31;109243;1265;21979;-85
2022/07/06 14:48:18;;;;;;;4.00;2.60;;;;;;;21.38;50.58;100751.88;109507;1265;23603;-83
2022/07/06 14:51:09;;;;;;;4.30;1.60;;;;;;;21.48;49.97;100752.05;109257;1265;23716;-83
2022/07/06 14:54:16;;;;;;;;;;;;;;;;;;;;;
2022/07/06 14:57:15;;;;;;;6.10;1.30;;;;;;;21.65;49.55;100750.44;110127;1254;21972;-83
2022/07/06 14:59:58;;;;;;;3.40;1.30;;;;;;;21.73;49.38;100748.95;110652;1254;21988;-84
2022/07/06 15:02:35;;;;;;;3.40;1.30;;;;;;;21.77;49.10;100747.83;110484;1256;22785;-83
2022/07/06 15:05:10;;;;;;;2.50;1.00;;;;;;;21.79;48.35;100742.48;110461;1256;23576;-84
2022/07/06 15:07:41;;;;;;;4.30;1.70;;;;;;;21.79;48.00;100740.34;110627;1256;22359;-80
2022/07/06 15:10:16;;;;;;;7.70;3.80;;;;;;;21.82;47.62;100737.73;110242;1257;22528;-84